69ND weather

Tengesdal Airport
Maxbass, North Dakota, United States

Public forecast

Using degrees Fahrenheit for public forecast. Weather courtesy of forecast.io.

Closest aviation weather report (METAR) to Tengesdal Airport

Closest report is Minot Air Force Base, 23.3 nm (43.2 km) SSW. Retrieved 2020/06/07 03:56 UTC (57 minutes ago):

KMIB 070356Z AUTO 12020G26KT 10SM FEW065 BKN150 17/09 A2962 RMK AO2 PK WND 13036/07 SLP037 T01720094

Closest aviation forecast (TAF) to Tengesdal Airport

Forecast is more than 12 hours old.

Closest forecast is Minot Air Force Base, 23.3 nm (43.2 km) SSW. Retrieved 2020/06/05 17:03 UTC (1 day ago):

TAF KMIB 051700Z 0517/0623 VRB06KT 9999 FEW060 QNH2995INS BECMG 0602/0603 12009KT 9999 SCT060 BKN120 QNH2998INS BECMG 0607/0608 12012G18KT 9999 BKN060 QNH2994INS BECMG 0614/0615 12025G35KT 6000 SHRA BKN030 510003 QNH2990INS BECMG 0617/0618 10030G40KT 3200 TSRA BKN005 OVC050CB QNH2972INS BECMG 0620/0621 13040G50KT 2000 +TSRA BKN010 OVC040CB QNH2967INS TX24/0520Z TN12/0610Z